Time;durP1;ratioP1;P1;durP2;ratioP2;P2;SDS_P1;SDS_P2;PMS_P1;PMS_P2;Temp;Humidity;BMP_temperature;BMP_pressure;BME280_temperature;BME280_humidity;BME280_pressure;Samples;Min_cycle;Max_cycle;Signal;HPM_P1;HPM_P2
2023/12/18 00:02:05;;;;;;;4.78;3.10;;;;;;;;;;4970535;28;20494;-68
2023/12/18 00:04:31;;;;;;;3.83;2.72;;;;;;;;;;5045111;28;20475;-68
2023/12/18 00:06:57;;;;;;;3.95;2.40;;;;;;;;;;4989410;28;20092;-68
2023/12/18 00:09:23;;;;;;;5.88;3.00;;;;;;;;;;4988354;28;20038;-67
2023/12/18 00:11:49;;;;;;;4.60;2.70;;;;;;;;;;5001066;28;20042;-68
2023/12/18 00:14:16;;;;;;;4.72;3.05;;;;;;;;;;5017374;28;20037;-67
2023/12/18 00:16:42;;;;;;;3.42;2.50;;;;;;;;;;4992094;28;20330;-70
2023/12/18 00:19:08;;;;;;;3.95;2.70;;;;;;;;;;4998477;28;20450;-67
2023/12/18 00:21:35;;;;;;;5.60;2.80;;;;;;;;;;5055566;28;20048;-68
2023/12/18 00:24:01;;;;;;;5.18;2.60;;;;;;;;;;5020984;28;20035;-69
2023/12/18 00:26:27;;;;;;;3.22;2.58;;;;;;;;;;4990971;28;20176;-68
2023/12/18 00:28:53;;;;;;;3.90;2.90;;;;;;;;;;4986493;28;20030;-69
2023/12/18 00:31:19;;;;;;;5.15;2.60;;;;;;;;;;5052529;28;20029;-69
2023/12/18 00:33:46;;;;;;;4.45;2.58;;;;;;;;;;4994095;28;20027;-68
2023/12/18 00:36:12;;;;;;;4.10;2.20;;;;;;;;;;5003359;28;20034;-68
2023/12/18 00:38:38;;;;;;;2.45;2.08;;;;;;;;;;5013123;28;20546;-67
2023/12/18 00:41:04;;;;;;;2.65;2.40;;;;;;;;;;4977253;28;20035;-69
2023/12/18 00:43:30;;;;;;;3.55;2.53;;;;;;;;;;5005710;28;20402;-68
2023/12/18 00:45:56;;;;;;;3.85;2.45;;;;;;;;;;4981821;28;20185;-68
2023/12/18 00:48:23;;;;;;;5.22;2.83;;;;;;;;;;4982891;28;20562;-68
2023/12/18 00:50:49;;;;;;;2.55;2.35;;;;;;;;;;4994805;28;20029;-68
2023/12/18 00:53:16;;;;;;;2.70;2.13;;;;;;;;;;5004462;28;20378;-67
2023/12/18 00:55:45;;;;;;;5.10;2.55;;;;;;;;;;4976959;28;20031;-68
2023/12/18 00:58:11;;;;;;;3.22;2.30;;;;;;;;;;5014846;28;20030;-68
2023/12/18 01:00:37;;;;;;;2.03;1.88;;;;;;;;;;4979813;28;20037;-68
2023/12/18 01:03:04;;;;;;;2.63;2.42;;;;;;;;;;4983809;28;20495;-68
2023/12/18 01:05:30;;;;;;;2.20;2.00;;;;;;;;;;5021146;28;21314;-68
2023/12/18 01:07:57;;;;;;;2.35;1.95;;;;;;;;;;4972164;28;20057;-67
2023/12/18 01:10:23;;;;;;;2.25;2.03;;;;;;;;;;4993945;28;20027;-68
2023/12/18 01:12:49;;;;;;;2.30;2.10;;;;;;;;;;4997249;28;20119;-67
2023/12/18 01:15:15;;;;;;;4.93;2.63;;;;;;;;;;4998769;28;20033;-67
2023/12/18 01:17:41;;;;;;;3.22;1.92;;;;;;;;;;4964063;28;20421;-67
2023/12/18 01:20:08;;;;;;;2.22;1.80;;;;;;;;;;5007242;28;21035;-69
2023/12/18 01:22:34;;;;;;;3.97;2.20;;;;;;;;;;4977785;28;20027;-66
2023/12/18 01:25:01;;;;;;;2.00;1.80;;;;;;;;;;4999360;28;20184;-68
2023/12/18 01:27:27;;;;;;;2.40;2.10;;;;;;;;;;4967076;28;20437;-68
2023/12/18 01:29:54;;;;;;;3.35;1.90;;;;;;;;;;4994607;28;20545;-68
2023/12/18 01:32:20;;;;;;;4.05;2.33;;;;;;;;;;5003916;28;20045;-66
2023/12/18 01:34:46;;;;;;;1.98;1.77;;;;;;;;;;5048436;28;20513;-67
2023/12/18 01:37:12;;;;;;;3.70;1.90;;;;;;;;;;4989635;28;20043;-67
2023/12/18 01:39:39;;;;;;;3.90;1.95;;;;;;;;;;5034814;28;20317;-68
2023/12/18 01:42:05;;;;;;;2.28;2.08;;;;;;;;;;5016117;28;20030;-68
2023/12/18 01:44:40;;;;;;;3.17;1.83;;;;;;;;;;4995644;28;20028;-68
2023/12/18 01:47:07;;;;;;;2.13;1.80;;;;;;;;;;5043098;28;20049;-69
2023/12/18 01:49:34;;;;;;;1.63;1.52;;;;;;;;;;4997097;28;20544;-71
2023/12/18 01:52:00;;;;;;;2.58;2.00;;;;;;;;;;4996329;28;20020;-68
2023/12/18 01:54:27;;;;;;;1.98;1.80;;;;;;;;;;4958689;28;20019;-67
2023/12/18 01:56:54;;;;;;;1.92;1.77;;;;;;;;;;4978800;28;20058;-68
2023/12/18 01:59:21;;;;;;;2.70;1.80;;;;;;;;;;5010661;28;20465;-70
2023/12/18 02:01:48;;;;;;;6.22;1.80;;;;;;;;;;4985701;28;20541;-68
2023/12/18 02:04:15;;;;;;;2.20;2.00;;;;;;;;;;5001209;28;20028;-68
2023/12/18 02:06:42;;;;;;;1.80;1.65;;;;;;;;;;5003174;28;20046;-69
2023/12/18 02:09:09;;;;;;;1.95;1.70;;;;;;;;;;5039605;28;20210;-68
2023/12/18 02:11:37;;;;;;;2.00;1.80;;;;;;;;;;5048210;28;20017;-69
2023/12/18 02:14:05;;;;;;;1.95;1.77;;;;;;;;;;4989987;28;20320;-69
2023/12/18 02:16:31;;;;;;;2.08;1.85;;;;;;;;;;5053410;28;20037;-68
2023/12/18 02:18:57;;;;;;;2.40;1.80;;;;;;;;;;5002203;28;20021;-69
2023/12/18 02:21:26;;;;;;;2.60;1.80;;;;;;;;;;5007006;28;20049;-69
2023/12/18 02:23:52;;;;;;;2.58;2.28;;;;;;;;;;5035758;28;20628;-69
2023/12/18 02:26:19;;;;;;;3.35;1.83;;;;;;;;;;4996193;28;20029;-68
2023/12/18 02:28:45;;;;;;;1.70;1.60;;;;;;;;;;5039667;28;20564;-69
2023/12/18 02:31:15;;;;;;;1.73;1.63;;;;;;;;;;5035427;28;20027;-69
2023/12/18 02:33:41;;;;;;;2.20;1.70;;;;;;;;;;5042502;28;20059;-69
2023/12/18 02:36:08;;;;;;;1.80;1.70;;;;;;;;;;5039881;28;20053;-69
2023/12/18 02:38:34;;;;;;;1.70;1.60;;;;;;;;;;5039101;28;20025;-68
2023/12/18 02:41:01;;;;;;;3.05;1.70;;;;;;;;;;5036916;28;21056;-69
2023/12/18 02:43:27;;;;;;;2.67;1.67;;;;;;;;;;5037080;28;20177;-69
2023/12/18 02:45:53;;;;;;;1.70;1.60;;;;;;;;;;5035363;28;20535;-69
2023/12/18 02:48:19;;;;;;;2.22;1.80;;;;;;;;;;5051226;28;20032;-68
2023/12/18 02:50:45;;;;;;;1.90;1.70;;;;;;;;;;5037094;28;20036;-68
2023/12/18 02:53:11;;;;;;;1.85;1.75;;;;;;;;;;5035723;28;20091;-69
2023/12/18 02:55:37;;;;;;;2.28;1.88;;;;;;;;;;5026133;28;20085;-69
2023/12/18 02:58:03;;;;;;;1.95;1.70;;;;;;;;;;5024141;28;20063;-69
2023/12/18 03:00:30;;;;;;;1.75;1.65;;;;;;;;;;5044774;28;20385;-69
2023/12/18 03:02:56;;;;;;;1.60;1.50;;;;;;;;;;5050510;28;20030;-69
2023/12/18 03:05:22;;;;;;;1.70;1.60;;;;;;;;;;5050708;28;20032;-68
2023/12/18 03:07:48;;;;;;;1.70;1.60;;;;;;;;;;5048540;28;20032;-69
2023/12/18 03:10:15;;;;;;;2.08;1.98;;;;;;;;;;5048385;28;20469;-70
2023/12/18 03:12:41;;;;;;;2.70;1.63;;;;;;;;;;5039252;28;20461;-71
2023/12/18 03:15:08;;;;;;;1.70;1.60;;;;;;;;;;5043722;28;20028;-67
2023/12/18 03:17:34;;;;;;;1.60;1.50;;;;;;;;;;5031314;28;20496;-68
2023/12/18 03:20:00;;;;;;;3.67;1.90;;;;;;;;;;5043676;28;20040;-68
2023/12/18 03:22:26;;;;;;;2.25;2.05;;;;;;;;;;5038644;28;20036;-68
2023/12/18 03:24:52;;;;;;;2.22;1.90;;;;;;;;;;5042847;28;20416;-68
2023/12/18 03:27:18;;;;;;;2.80;1.75;;;;;;;;;;4997027;28;20562;-67
2023/12/18 03:29:47;;;;;;;1.65;1.55;;;;;;;;;;5042705;28;20028;-68
2023/12/18 03:32:13;;;;;;;1.75;1.60;;;;;;;;;;5055687;28;20032;-68
2023/12/18 03:34:39;;;;;;;3.08;1.75;;;;;;;;;;5041561;28;20032;-68
2023/12/18 03:37:05;;;;;;;1.80;1.70;;;;;;;;;;5038363;28;20389;-68
2023/12/18 03:39:32;;;;;;;1.60;1.50;;;;;;;;;;5052701;28;20033;-69
2023/12/18 03:41:58;;;;;;;1.60;1.50;;;;;;;;;;5044720;28;20052;-69
2023/12/18 03:44:24;;;;;;;2.47;1.80;;;;;;;;;;5046670;28;20073;-69
2023/12/18 03:46:50;;;;;;;1.45;1.35;;;;;;;;;;5034193;28;20140;-68
2023/12/18 03:49:16;;;;;;;2.28;1.80;;;;;;;;;;5034909;28;20025;-68
2023/12/18 03:51:42;;;;;;;3.33;1.75;;;;;;;;;;5035369;28;20389;-68
2023/12/18 03:54:08;;;;;;;1.73;1.63;;;;;;;;;;5043960;28;20032;-68
2023/12/18 03:56:35;;;;;;;2.40;1.67;;;;;;;;;;5036431;28;20027;-68
2023/12/18 03:59:01;;;;;;;2.10;1.70;;;;;;;;;;5043869;28;20029;-68
2023/12/18 04:01:34;;;;;;;2.08;1.50;;;;;;;;;;5034000;28;20109;-67
2023/12/18 04:04:04;;;;;;;1.60;1.50;;;;;;;;;;5033223;28;20775;-67
2023/12/18 04:06:30;;;;;;;2.03;1.85;;;;;;;;;;5045079;28;20686;-68
2023/12/18 04:08:56;;;;;;;1.70;1.60;;;;;;;;;;5038467;28;20032;-67
2023/12/18 04:11:22;;;;;;;1.40;1.30;;;;;;;;;;5043418;28;20187;-72
2023/12/18 04:13:56;;;;;;;1.58;1.48;;;;;;;;;;5042421;28;20028;-68
2023/12/18 04:16:23;;;;;;;3.30;1.67;;;;;;;;;;5008952;28;20026;-68
2023/12/18 04:18:50;;;;;;;2.30;2.10;;;;;;;;;;5037135;28;20041;-68
2023/12/18 04:21:16;;;;;;;1.70;1.60;;;;;;;;;;5029627;28;20308;-68
2023/12/18 04:23:44;;;;;;;1.50;1.40;;;;;;;;;;4983123;28;20361;-67
2023/12/18 04:26:10;;;;;;;2.15;1.48;;;;;;;;;;4952138;28;20369;-68
2023/12/18 04:28:37;;;;;;;1.63;1.52;;;;;;;;;;4969265;28;20526;-68
2023/12/18 04:31:03;;;;;;;1.58;1.48;;;;;;;;;;4952703;28;20138;-68
2023/12/18 04:33:29;;;;;;;1.45;1.35;;;;;;;;;;5041422;28;20021;-68
2023/12/18 04:35:55;;;;;;;1.98;1.55;;;;;;;;;;5041750;28;20036;-68
2023/12/18 04:38:21;;;;;;;1.40;1.30;;;;;;;;;;4977838;28;20029;-68
2023/12/18 04:40:47;;;;;;;1.42;1.33;;;;;;;;;;5050441;28;20029;-68
2023/12/18 04:43:13;;;;;;;1.65;1.45;;;;;;;;;;4993855;28;20374;-68
2023/12/18 04:45:40;;;;;;;1.50;1.40;;;;;;;;;;4980592;28;20029;-68
2023/12/18 04:48:06;;;;;;;1.50;1.40;;;;;;;;;;5001809;28;20348;-68
2023/12/18 04:50:32;;;;;;;1.70;1.60;;;;;;;;;;5010819;28;20025;-67
2023/12/18 04:52:58;;;;;;;2.95;1.30;;;;;;;;;;5009034;28;20198;-68
2023/12/18 04:55:24;;;;;;;1.20;1.20;;;;;;;;;;4964888;28;20027;-68
2023/12/18 04:57:50;;;;;;;1.20;1.17;;;;;;;;;;4989919;28;20426;-67
2023/12/18 05:00:17;;;;;;;1.40;1.35;;;;;;;;;;4960721;28;20336;-67
2023/12/18 05:02:43;;;;;;;1.38;1.35;;;;;;;;;;5018980;28;20021;-68
2023/12/18 05:05:09;;;;;;;2.25;2.05;;;;;;;;;;4981165;28;20047;-68
2023/12/18 05:07:35;;;;;;;1.40;1.30;;;;;;;;;;5004395;28;20409;-68
2023/12/18 05:10:05;;;;;;;1.42;1.33;;;;;;;;;;4952598;28;20026;-67
2023/12/18 05:12:31;;;;;;;1.50;1.40;;;;;;;;;;4951787;28;20106;-68
2023/12/18 05:14:57;;;;;;;1.40;1.30;;;;;;;;;;4977310;28;20025;-68
2023/12/18 05:17:23;;;;;;;1.42;1.33;;;;;;;;;;4959366;28;20109;-67
2023/12/18 05:19:50;;;;;;;1.50;1.40;;;;;;;;;;4953927;28;20108;-68
2023/12/18 05:22:16;;;;;;;1.48;1.38;;;;;;;;;;5016246;28;20035;-68
2023/12/18 05:24:42;;;;;;;1.50;1.40;;;;;;;;;;4967285;28;20077;-68
2023/12/18 05:27:08;;;;;;;1.20;1.20;;;;;;;;;;4948477;28;20023;-68
2023/12/18 05:29:34;;;;;;;1.58;1.35;;;;;;;;;;5030251;28;20050;-68
2023/12/18 05:32:00;;;;;;;1.30;1.30;;;;;;;;;;4990379;28;20028;-66
2023/12/18 05:34:27;;;;;;;1.60;1.50;;;;;;;;;;4991006;28;20140;-68
2023/12/18 05:36:54;;;;;;;1.60;1.58;;;;;;;;;;4961242;28;20023;-67
2023/12/18 05:39:20;;;;;;;1.40;1.30;;;;;;;;;;4967364;28;20695;-68
2023/12/18 05:41:46;;;;;;;4.95;1.50;;;;;;;;;;4954377;28;20263;-68
2023/12/18 05:44:12;;;;;;;1.35;1.20;;;;;;;;;;4958003;28;20030;-67
2023/12/18 05:46:38;;;;;;;1.65;1.45;;;;;;;;;;5006045;28;20031;-67
2023/12/18 05:49:07;;;;;;;1.38;1.27;;;;;;;;;;4981845;28;20039;-68
2023/12/18 05:51:33;;;;;;;1.50;1.40;;;;;;;;;;4995703;28;20027;-67
2023/12/18 05:53:59;;;;;;;1.35;1.30;;;;;;;;;;4943520;28;20190;-67
2023/12/18 05:56:25;;;;;;;1.42;1.33;;;;;;;;;;4960852;28;20702;-68
2023/12/18 05:58:52;;;;;;;1.83;1.73;;;;;;;;;;4963774;28;20053;-68
2023/12/18 06:01:19;;;;;;;1.60;1.50;;;;;;;;;;4972300;28;20026;-67
2023/12/18 06:03:46;;;;;;;2.78;1.60;;;;;;;;;;5013266;28;20120;-68
2023/12/18 06:06:12;;;;;;;2.85;1.50;;;;;;;;;;5042434;28;20050;-67
2023/12/18 06:08:38;;;;;;;2.95;1.63;;;;;;;;;;5034939;28;20076;-68
2023/12/18 06:11:05;;;;;;;2.25;1.50;;;;;;;;;;5034970;28;20031;-68
2023/12/18 06:13:31;;;;;;;1.60;1.50;;;;;;;;;;4995530;28;20042;-67
2023/12/18 06:15:57;;;;;;;1.65;1.55;;;;;;;;;;4953060;28;20090;-68
2023/12/18 06:18:23;;;;;;;1.67;1.58;;;;;;;;;;4961340;28;20079;-68
2023/12/18 06:20:50;;;;;;;2.75;1.73;;;;;;;;;;4990662;28;20052;-69
2023/12/18 06:23:16;;;;;;;1.60;1.50;;;;;;;;;;5022234;28;20428;-67
2023/12/18 06:25:42;;;;;;;2.40;1.67;;;;;;;;;;4964854;28;20112;-68
2023/12/18 06:28:08;;;;;;;3.67;1.80;;;;;;;;;;4979525;28;20233;-68
2023/12/18 06:30:35;;;;;;;1.70;1.60;;;;;;;;;;4951718;28;20023;-68
2023/12/18 06:33:01;;;;;;;1.60;1.50;;;;;;;;;;4968760;28;20054;-68
2023/12/18 06:35:27;;;;;;;2.47;1.42;;;;;;;;;;4950192;28;20473;-68
2023/12/18 06:37:53;;;;;;;1.63;1.52;;;;;;;;;;4942392;28;20043;-68
2023/12/18 06:40:19;;;;;;;1.20;1.20;;;;;;;;;;4969327;28;20113;-69
2023/12/18 06:42:45;;;;;;;2.35;1.60;;;;;;;;;;5020431;28;20021;-69
2023/12/18 06:45:12;;;;;;;1.58;1.48;;;;;;;;;;4971995;28;20033;-69
2023/12/18 06:47:38;;;;;;;1.60;1.50;;;;;;;;;;4977228;28;20114;-69
2023/12/18 06:50:04;;;;;;;1.50;1.40;;;;;;;;;;4984938;28;20382;-69
2023/12/18 06:52:30;;;;;;;1.85;1.60;;;;;;;;;;4948905;28;21354;-68
2023/12/18 06:54:57;;;;;;;1.77;1.58;;;;;;;;;;5050945;28;20052;-67
2023/12/18 06:57:23;;;;;;;1.50;1.40;;;;;;;;;;4951551;28;20612;-68
2023/12/18 06:59:49;;;;;;;1.20;1.20;;;;;;;;;;4999363;28;20462;-68
2023/12/18 07:02:15;;;;;;;1.42;1.33;;;;;;;;;;4975948;28;20560;-68
2023/12/18 07:04:41;;;;;;;1.60;1.50;;;;;;;;;;4982936;28;20050;-67
2023/12/18 07:07:08;;;;;;;1.40;1.30;;;;;;;;;;5019831;28;20261;-67
2023/12/18 07:09:34;;;;;;;1.48;1.38;;;;;;;;;;5021549;28;20135;-67
2023/12/18 07:12:00;;;;;;;2.85;1.35;;;;;;;;;;4984121;28;20023;-67
2023/12/18 07:14:26;;;;;;;1.30;1.30;;;;;;;;;;4991975;28;20046;-67
2023/12/18 07:16:55;;;;;;;1.30;1.30;;;;;;;;;;4949273;28;20027;-67
2023/12/18 07:19:21;;;;;;;1.55;1.45;;;;;;;;;;4995998;28;20062;-68
2023/12/18 07:21:48;;;;;;;1.67;1.40;;;;;;;;;;5031939;28;20033;-68
2023/12/18 07:24:14;;;;;;;1.90;1.52;;;;;;;;;;5035003;28;20181;-68
2023/12/18 07:26:40;;;;;;;1.60;1.50;;;;;;;;;;5042162;28;20116;-67
2023/12/18 07:29:06;;;;;;;1.70;1.60;;;;;;;;;;5030123;28;20044;-67
2023/12/18 07:31:35;;;;;;;2.83;1.63;;;;;;;;;;5048665;28;20124;-67
2023/12/18 07:34:01;;;;;;;1.50;1.40;;;;;;;;;;5034771;28;20021;-67
2023/12/18 07:36:27;;;;;;;1.50;1.40;;;;;;;;;;5032861;28;20041;-68
2023/12/18 07:38:53;;;;;;;1.63;1.52;;;;;;;;;;5019355;28;20551;-67
2023/12/18 07:41:19;;;;;;;1.88;1.77;;;;;;;;;;5040451;28;20413;-67
2023/12/18 07:43:45;;;;;;;1.75;1.65;;;;;;;;;;5031473;28;20033;-67
2023/12/18 07:46:21;;;;;;;1.60;1.50;;;;;;;;;;5030136;28;20032;-67
2023/12/18 07:48:48;;;;;;;1.38;1.30;;;;;;;;;;5028741;28;20025;-67
2023/12/18 07:51:14;;;;;;;1.60;1.50;;;;;;;;;;5051391;28;20047;-66
2023/12/18 07:53:41;;;;;;;1.30;1.30;;;;;;;;;;5040931;28;20438;-66
2023/12/18 07:56:07;;;;;;;3.45;1.67;;;;;;;;;;5052353;28;20048;-67
2023/12/18 07:58:33;;;;;;;1.30;1.23;;;;;;;;;;5046029;28;20040;-67
2023/12/18 08:01:01;;;;;;;1.35;1.33;;;;;;;;;;5047573;28;20071;-68
2023/12/18 08:03:27;;;;;;;1.30;1.30;;;;;;;;;;5039334;28;20390;-67
2023/12/18 08:05:53;;;;;;;1.70;1.60;;;;;;;;;;5029658;28;20039;-67
2023/12/18 08:08:19;;;;;;;1.50;1.40;;;;;;;;;;5044352;28;20036;-67
2023/12/18 08:10:45;;;;;;;1.73;1.63;;;;;;;;;;5029953;28;20398;-67
2023/12/18 08:13:12;;;;;;;1.50;1.40;;;;;;;;;;5028320;28;20075;-67
2023/12/18 08:15:38;;;;;;;2.35;1.40;;;;;;;;;;5026896;28;20097;-67
2023/12/18 08:18:05;;;;;;;1.20;1.20;;;;;;;;;;5043761;28;20021;-67
2023/12/18 08:20:31;;;;;;;1.83;1.73;;;;;;;;;;5031481;28;20205;-67
2023/12/18 08:22:57;;;;;;;1.50;1.40;;;;;;;;;;5042770;28;20030;-67
2023/12/18 08:25:25;;;;;;;1.50;1.40;;;;;;;;;;5038608;28;20053;-67
2023/12/18 08:27:51;;;;;;;1.77;1.40;;;;;;;;;;5039347;28;20025;-67
2023/12/18 08:30:17;;;;;;;1.55;1.45;;;;;;;;;;5037410;28;20034;-67
2023/12/18 08:32:44;;;;;;;1.60;1.50;;;;;;;;;;5036803;28;20071;-68
2023/12/18 08:35:10;;;;;;;1.80;1.48;;;;;;;;;;5030679;28;20108;-67
2023/12/18 08:37:36;;;;;;;1.95;1.60;;;;;;;;;;5036250;28;20505;-67
2023/12/18 08:40:03;;;;;;;1.83;1.73;;;;;;;;;;5043416;28;20575;-68
2023/12/18 08:42:29;;;;;;;1.60;1.50;;;;;;;;;;5037192;28;20019;-68
2023/12/18 08:44:59;;;;;;;1.73;1.63;;;;;;;;;;5034210;28;20087;-68
2023/12/18 08:47:28;;;;;;;1.67;1.58;;;;;;;;;;5049702;28;20064;-68
2023/12/18 08:49:54;;;;;;;1.70;1.60;;;;;;;;;;5045260;28;20492;-69
2023/12/18 08:52:20;;;;;;;2.28;1.70;;;;;;;;;;5045183;28;20021;-68
2023/12/18 08:54:48;;;;;;;1.90;1.60;;;;;;;;;;5063093;28;20551;-68
2023/12/18 08:57:14;;;;;;;2.00;1.80;;;;;;;;;;5041562;28;20021;-68
2023/12/18 08:59:40;;;;;;;2.13;1.90;;;;;;;;;;5039050;28;20030;-68
2023/12/18 09:02:06;;;;;;;2.42;2.22;;;;;;;;;;5043201;28;20040;-68
2023/12/18 09:04:32;;;;;;;3.78;1.90;;;;;;;;;;5035652;28;20029;-68
2023/12/18 09:06:58;;;;;;;2.10;1.90;;;;;;;;;;5039355;28;20293;-68
2023/12/18 09:09:26;;;;;;;2.22;1.92;;;;;;;;;;5042527;28;20029;-69
2023/12/18 09:11:52;;;;;;;1.98;1.77;;;;;;;;;;5041146;28;20680;-68
2023/12/18 09:14:18;;;;;;;2.42;2.00;;;;;;;;;;5039131;28;20036;-68
2023/12/18 09:16:44;;;;;;;2.70;1.75;;;;;;;;;;5052058;28;20021;-68
2023/12/18 09:19:10;;;;;;;2.33;1.95;;;;;;;;;;5033103;28;20037;-70
2023/12/18 09:21:37;;;;;;;2.42;1.92;;;;;;;;;;4986699;28;20044;-69
2023/12/18 09:24:03;;;;;;;3.58;1.85;;;;;;;;;;5011592;28;20073;-68
2023/12/18 09:26:29;;;;;;;1.98;1.77;;;;;;;;;;5003105;28;20320;-68
2023/12/18 09:28:56;;;;;;;3.33;2.10;;;;;;;;;;5014167;28;20025;-69
2023/12/18 09:31:22;;;;;;;2.08;1.88;;;;;;;;;;4998483;28;20042;-68
2023/12/18 09:33:48;;;;;;;2.35;1.77;;;;;;;;;;5009112;28;20020;-70
2023/12/18 09:36:14;;;;;;;2.40;2.00;;;;;;;;;;5051906;28;20100;-67
2023/12/18 09:38:40;;;;;;;2.83;2.15;;;;;;;;;;5041265;28;20023;-68
2023/12/18 09:41:07;;;;;;;2.65;1.80;;;;;;;;;;4959115;28;20030;-67
2023/12/18 09:43:34;;;;;;;2.00;1.70;;;;;;;;;;4972873;28;20026;-67
2023/12/18 09:46:00;;;;;;;2.10;1.65;;;;;;;;;;5023102;28;20024;-69
2023/12/18 09:48:26;;;;;;;2.58;1.83;;;;;;;;;;5012027;28;20572;-71
2023/12/18 09:50:53;;;;;;;3.20;1.95;;;;;;;;;;4983051;28;20020;-70
2023/12/18 09:53:21;;;;;;;2.17;1.90;;;;;;;;;;5001445;28;20500;-69
2023/12/18 09:55:54;;;;;;;2.78;1.80;;;;;;;;;;5000753;28;20059;-70
2023/12/18 09:58:21;;;;;;;1.77;1.67;;;;;;;;;;4959325;28;20046;-70
2023/12/18 10:00:48;;;;;;;1.90;1.75;;;;;;;;;;4967341;28;20502;-70
2023/12/18 10:03:16;;;;;;;1.60;1.50;;;;;;;;;;4965799;28;20031;-70
2023/12/18 10:05:42;;;;;;;1.70;1.60;;;;;;;;;;4970563;28;20106;-69
2023/12/18 10:08:09;;;;;;;1.50;1.40;;;;;;;;;;5045910;28;20113;-69
2023/12/18 10:10:35;;;;;;;1.75;1.65;;;;;;;;;;4990580;28;20090;-69
2023/12/18 10:13:07;;;;;;;1.60;1.50;;;;;;;;;;4990012;28;20020;-70
2023/12/18 10:15:35;;;;;;;2.00;1.65;;;;;;;;;;4977557;28;20019;-69
2023/12/18 10:18:02;;;;;;;2.72;1.63;;;;;;;;;;5036117;28;20027;-71
2023/12/18 10:20:30;;;;;;;1.45;1.35;;;;;;;;;;4981303;28;20039;-70
2023/12/18 10:22:56;;;;;;;1.85;1.50;;;;;;;;;;4982416;28;20652;-69
2023/12/18 10:25:23;;;;;;;2.03;1.83;;;;;;;;;;5002961;28;20036;-69
2023/12/18 10:27:50;;;;;;;2.05;1.73;;;;;;;;;;4962223;28;20033;-71
2023/12/18 10:30:16;;;;;;;5.38;1.80;;;;;;;;;;5046415;28;20086;-69
2023/12/18 10:32:42;;;;;;;1.92;1.80;;;;;;;;;;4972637;28;20027;-69
2023/12/18 10:35:09;;;;;;;1.95;1.80;;;;;;;;;;5008689;28;20512;-69
2023/12/18 10:37:36;;;;;;;2.60;1.70;;;;;;;;;;5003883;28;20503;-69
2023/12/18 10:40:03;;;;;;;2.33;1.77;;;;;;;;;;4962938;28;20495;-69
2023/12/18 10:42:36;;;;;;;2.45;1.80;;;;;;;;;;5030756;28;20059;-70
2023/12/18 10:45:06;;;;;;;3.30;1.80;;;;;;;;;;5015421;28;20135;-70
2023/12/18 10:47:32;;;;;;;2.92;1.90;;;;;;;;;;4975176;28;20526;-70
2023/12/18 10:50:03;;;;;;;2.95;1.70;;;;;;;;;;4993741;28;20085;-69
2023/12/18 10:52:30;;;;;;;1.73;1.63;;;;;;;;;;4963956;28;20051;-70
2023/12/18 10:55:00;;;;;;;2.65;1.92;;;;;;;;;;5007795;28;20435;-70
2023/12/18 10:57:29;;;;;;;2.22;2.03;;;;;;;;;;5008152;28;20570;-69
2023/12/18 10:59:57;;;;;;;2.42;1.80;;;;;;;;;;4971968;28;20076;-70
2023/12/18 11:02:24;;;;;;;2.22;1.70;;;;;;;;;;5018791;28;20025;-70
2023/12/18 11:04:54;;;;;;;1.70;1.60;;;;;;;;;;4978953;28;20080;-69
2023/12/18 11:07:20;;;;;;;1.80;1.70;;;;;;;;;;4986016;28;20197;-70
2023/12/18 11:09:47;;;;;;;3.30;1.80;;;;;;;;;;5004544;28;20025;-70
2023/12/18 11:12:15;;;;;;;1.90;1.75;;;;;;;;;;5001711;28;20031;-70
2023/12/18 11:14:47;;;;;;;2.22;1.85;;;;;;;;;;5002621;28;20023;-69
2023/12/18 11:17:23;;;;;;;2.72;2.20;;;;;;;;;;5015813;28;20321;-69
2023/12/18 11:19:58;;;;;;;2.33;2.00;;;;;;;;;;5047429;28;20123;-69
2023/12/18 11:22:41;;;;;;;2.33;1.88;;;;;;;;;;5052476;28;20507;-69
2023/12/18 11:25:09;;;;;;;2.65;2.10;;;;;;;;;;5055492;28;20291;-70
2023/12/18 11:27:36;;;;;;;2.15;1.95;;;;;;;;;;5021722;28;20028;-69
2023/12/18 11:30:02;;;;;;;4.72;2.28;;;;;;;;;;5057067;28;20527;-69
2023/12/18 11:32:42;;;;;;;2.20;2.00;;;;;;;;;;5003545;28;20014;-70
2023/12/18 11:35:09;;;;;;;2.25;2.00;;;;;;;;;;5060446;28;20081;-69
2023/12/18 11:37:45;;;;;;;2.10;1.90;;;;;;;;;;5011400;28;20111;-70
2023/12/18 11:40:36;;;;;;;2.58;1.95;;;;;;;;;;5019327;28;20726;-70
2023/12/18 11:43:03;;;;;;;2.67;2.25;;;;;;;;;;5049479;28;20046;-70
2023/12/18 11:45:30;;;;;;;2.25;1.98;;;;;;;;;;5008890;28;20035;-69
2023/12/18 11:47:57;;;;;;;2.55;2.15;;;;;;;;;;4966353;28;20026;-69
2023/12/18 11:50:26;;;;;;;4.07;2.10;;;;;;;;;;4975154;28;20254;-70
2023/12/18 11:52:56;;;;;;;3.38;2.40;;;;;;;;;;5026136;28;20038;-70
2023/12/18 11:55:38;;;;;;;2.90;2.05;;;;;;;;;;5035159;28;20035;-70
2023/12/18 11:58:04;;;;;;;2.13;1.90;;;;;;;;;;4997598;28;20503;-70
2023/12/18 12:00:31;;;;;;;2.78;2.38;;;;;;;;;;4958825;28;20088;-70
2023/12/18 12:02:58;;;;;;;2.28;2.05;;;;;;;;;;5012233;28;20473;-70
2023/12/18 12:05:25;;;;;;;3.00;2.13;;;;;;;;;;5002522;28;20054;-72
2023/12/18 12:07:51;;;;;;;2.67;2.28;;;;;;;;;;5003474;28;20062;-70
2023/12/18 12:10:18;;;;;;;3.25;2.17;;;;;;;;;;5035619;28;20034;-70
2023/12/18 12:12:44;;;;;;;2.42;2.17;;;;;;;;;;5028102;28;20037;-70
2023/12/18 12:15:11;;;;;;;2.50;2.30;;;;;;;;;;5004526;28;20572;-70
2023/12/18 12:17:37;;;;;;;10.30;2.83;;;;;;;;;;5016983;28;20030;-70
2023/12/18 12:20:17;;;;;;;5.63;2.55;;;;;;;;;;4983241;28;20047;-69
2023/12/18 12:22:43;;;;;;;3.80;3.47;;;;;;;;;;5043382;28;20799;-70
2023/12/18 12:25:10;;;;;;;4.53;3.63;;;;;;;;;;5051685;28;20027;-69
2023/12/18 12:27:36;;;;;;;3.15;2.70;;;;;;;;;;4951909;28;20038;-69
2023/12/18 12:30:06;;;;;;;3.40;3.10;;;;;;;;;;5039838;28;20042;-69
2023/12/18 12:32:32;;;;;;;3.17;2.88;;;;;;;;;;4990625;28;20024;-69
2023/12/18 12:34:59;;;;;;;2.90;2.70;;;;;;;;;;5010437;28;20522;-69
2023/12/18 12:37:25;;;;;;;3.72;2.70;;;;;;;;;;5008375;28;20031;-69
2023/12/18 12:40:02;;;;;;;2.40;2.20;;;;;;;;;;5052287;28;20090;-69
2023/12/18 12:42:30;;;;;;;1.80;1.70;;;;;;;;;;5000677;28;20500;-69
2023/12/18 12:44:56;;;;;;;2.28;2.08;;;;;;;;;;5039773;28;20039;-69
2023/12/18 12:47:23;;;;;;;2.10;1.90;;;;;;;;;;4995982;28;20030;-70
2023/12/18 12:49:49;;;;;;;2.10;1.83;;;;;;;;;;4990767;28;20027;-69
2023/12/18 12:52:16;;;;;;;2.63;2.38;;;;;;;;;;4995150;28;20297;-69
2023/12/18 12:54:45;;;;;;;1.92;1.73;;;;;;;;;;5005032;28;20689;-69
2023/12/18 12:57:12;;;;;;;2.13;1.92;;;;;;;;;;5008018;28;20050;-69
2023/12/18 12:59:51;;;;;;;1.65;1.55;;;;;;;;;;5001008;28;20304;-69
2023/12/18 13:02:21;;;;;;;3.28;2.80;;;;;;;;;;4991611;28;20311;-72
2023/12/18 13:04:48;;;;;;;2.95;2.47;;;;;;;;;;4970831;28;20034;-69
2023/12/18 13:07:15;;;;;;;3.58;2.47;;;;;;;;;;4990862;28;20035;-69
2023/12/18 13:09:41;;;;;;;4.43;3.00;;;;;;;;;;4990665;28;20035;-70
2023/12/18 13:12:08;;;;;;;4.63;2.78;;;;;;;;;;4954423;28;20239;-69
2023/12/18 13:14:36;;;;;;;4.95;3.28;;;;;;;;;;5013651;28;20025;-70
2023/12/18 13:17:05;;;;;;;3.35;2.10;;;;;;;;;;5000591;28;20030;-69
2023/12/18 13:19:32;;;;;;;2.63;2.20;;;;;;;;;;4956360;28;20495;-71
2023/12/18 13:21:58;;;;;;;1.98;1.80;;;;;;;;;;5024874;28;20046;-69
2023/12/18 13:24:24;;;;;;;1.70;1.60;;;;;;;;;;5036443;28;20037;-69
2023/12/18 13:26:51;;;;;;;2.20;2.00;;;;;;;;;;5036376;28;20314;-70
2023/12/18 13:29:17;;;;;;;3.42;1.92;;;;;;;;;;5035711;28;20384;-69
2023/12/18 13:31:43;;;;;;;1.73;1.60;;;;;;;;;;5040682;28;20040;-69
2023/12/18 13:34:09;;;;;;;1.55;1.45;;;;;;;;;;5036532;28;20306;-69
2023/12/18 13:36:36;;;;;;;1.63;1.52;;;;;;;;;;5018179;28;20172;-69
2023/12/18 13:39:02;;;;;;;2.00;1.80;;;;;;;;;;5034899;28;20025;-69
2023/12/18 13:41:35;;;;;;;1.70;1.60;;;;;;;;;;5044584;28;20340;-69
2023/12/18 13:44:02;;;;;;;1.70;1.50;;;;;;;;;;5033291;28;20045;-69
2023/12/18 13:46:29;;;;;;;2.17;1.67;;;;;;;;;;5045703;28;20025;-70
2023/12/18 13:48:55;;;;;;;2.08;1.85;;;;;;;;;;5040083;28;20032;-70
2023/12/18 13:51:21;;;;;;;1.70;1.58;;;;;;;;;;5043195;28;20110;-70
2023/12/18 13:53:48;;;;;;;1.92;1.70;;;;;;;;;;5043654;28;20032;-70
2023/12/18 13:56:14;;;;;;;1.73;1.60;;;;;;;;;;5044021;28;20584;-70
2023/12/18 13:58:40;;;;;;;3.05;1.77;;;;;;;;;;5037711;28;20135;-70
2023/12/18 14:01:07;;;;;;;1.65;1.50;;;;;;;;;;5042985;28;20028;-70
2023/12/18 14:03:33;;;;;;;1.60;1.50;;;;;;;;;;5041188;28;20062;-69
2023/12/18 14:06:00;;;;;;;4.82;3.10;;;;;;;;;;5042748;28;20031;-70
2023/12/18 14:08:26;;;;;;;3.08;2.40;;;;;;;;;;5042538;28;20036;-70
2023/12/18 14:10:55;;;;;;;5.40;3.55;;;;;;;;;;5036463;28;20393;-70
2023/12/18 14:13:21;;;;;;;4.88;3.67;;;;;;;;;;5021011;28;20041;-69
2023/12/18 14:15:47;;;;;;;2.70;2.30;;;;;;;;;;5011736;28;20048;-70
2023/12/18 14:18:13;;;;;;;1.80;1.70;;;;;;;;;;5032906;28;20044;-69
2023/12/18 14:20:40;;;;;;;1.98;1.80;;;;;;;;;;5040681;28;20045;-69
2023/12/18 14:23:07;;;;;;;2.47;2.10;;;;;;;;;;5042319;28;20029;-69
2023/12/18 14:25:34;;;;;;;2.95;1.80;;;;;;;;;;5038086;28;20254;-69
2023/12/18 14:28:00;;;;;;;2.00;1.80;;;;;;;;;;5026187;28;20026;-69
2023/12/18 14:30:27;;;;;;;1.80;1.70;;;;;;;;;;5024474;28;20025;-69
2023/12/18 14:32:54;;;;;;;2.13;1.92;;;;;;;;;;5026670;28;20021;-70
2023/12/18 14:35:20;;;;;;;2.03;1.92;;;;;;;;;;5044404;28;20032;-70
2023/12/18 14:37:46;;;;;;;2.10;2.00;;;;;;;;;;5028912;28;20029;-69
2023/12/18 14:40:12;;;;;;;1.70;1.55;;;;;;;;;;5034560;28;20034;-70
2023/12/18 14:42:39;;;;;;;2.10;1.90;;;;;;;;;;5032942;28;20047;-70